Time;durP1;ratioP1;P1;durP2;ratioP2;P2;SDS_P1;SDS_P2;PMS_P1;PMS_P2;Temp;Humidity;BMP_temperature;BMP_pressure;BME280_temperature;BME280_humidity;BME280_pressure;Samples;Min_cycle;Max_cycle;Signal;HPM_P1;HPM_P2
2023/01/21 00:02:17;;;;;;;29.10;18.52;;;;;;;-1.11;100.00;100546.22;10379204;28;20050;-72
2023/01/21 00:07:19;;;;;;;27.20;18.25;;;;;;;-1.05;100.00;100561.00;10379970;28;20092;-72
2023/01/21 00:12:21;;;;;;;30.63;16.13;;;;;;;-1.16;100.00;100559.88;10381504;28;20121;-72
2023/01/21 00:17:22;;;;;;;22.60;17.25;;;;;;;-1.16;100.00;100560.75;10380161;28;20042;-72
2023/01/21 00:22:24;;;;;;;24.67;16.33;;;;;;;-1.18;100.00;100561.56;10379606;28;20117;-73
2023/01/21 00:27:26;;;;;;;33.75;19.27;;;;;;;-1.07;100.00;100563.53;10379188;28;20053;-73
2023/01/21 00:32:28;;;;;;;35.83;19.73;;;;;;;-1.28;100.00;100565.63;10380275;28;20049;-72
2023/01/21 00:37:29;;;;;;;30.10;19.45;;;;;;;-1.23;100.00;100556.28;10379704;28;20454;-73
2023/01/21 00:42:31;;;;;;;22.77;17.30;;;;;;;-1.31;100.00;100562.97;10340354;28;1159875;-73
2023/01/21 00:47:33;;;;;;;30.48;18.77;;;;;;;-1.50;100.00;100566.78;10380394;28;20049;-72
2023/01/21 00:52:35;;;;;;;32.80;17.70;;;;;;;-1.57;100.00;100565.75;10379978;28;20049;-72
2023/01/21 00:57:36;;;;;;;40.08;19.10;;;;;;;-1.39;100.00;100569.63;10378831;28;20052;-72
2023/01/21 01:02:38;;;;;;;44.28;22.77;;;;;;;-1.47;100.00;100573.72;10379096;28;20422;-73
2023/01/21 01:07:42;;;;;;;45.83;22.55;;;;;;;-1.55;100.00;100582.16;10362371;28;20076;-73
2023/01/21 01:12:43;;;;;;;54.42;25.15;;;;;;;-1.56;100.00;100590.69;10379662;28;20049;-73
2023/01/21 01:17:45;;;;;;;50.45;23.75;;;;;;;-1.57;100.00;100588.94;10381288;28;20061;-73
2023/01/21 01:22:47;;;;;;;57.55;24.42;;;;;;;-1.56;100.00;100585.53;10379206;28;20093;-73
2023/01/21 01:27:48;;;;;;;46.10;20.70;;;;;;;-1.48;100.00;100587.44;10378619;28;20546;-73
2023/01/21 01:32:50;;;;;;;44.70;21.13;;;;;;;-1.68;100.00;100579.19;10382776;28;20046;-73
2023/01/21 01:37:53;;;;;;;44.97;22.27;;;;;;;-1.67;100.00;100584.41;10378477;28;20050;-73
2023/01/21 01:42:55;;;;;;;36.90;21.95;;;;;;;-1.67;100.00;100580.94;10381958;28;20042;-73
2023/01/21 01:48:01;;;;;;;42.30;22.10;;;;;;;-1.79;100.00;100591.78;10379731;28;20038;-73
2023/01/21 01:53:03;;;;;;;44.70;22.35;;;;;;;-1.67;100.00;100588.69;10379228;28;20053;-73
2023/01/21 01:58:09;;;;;;;34.33;21.98;;;;;;;-1.56;100.00;100593.28;10379126;28;20038;-73
2023/01/21 02:08:34;;;;;;;25.13;18.90;;;;;;;-1.60;100.00;100600.88;10378489;28;20046;-73
2023/01/21 02:13:36;;;;;;;27.00;21.13;;;;;;;-1.67;100.00;100606.72;10377772;28;20049;-74
2023/01/21 02:19:13;;;;;;;32.85;21.52;;;;;;;-1.54;100.00;100607.09;10379026;28;20052;-73
2023/01/21 02:24:33;;;;;;;51.58;25.50;;;;;;;-1.47;100.00;100614.97;10377741;28;20050;-73
2023/01/21 02:30:06;;;;;;;61.63;28.45;;;;;;;-1.74;100.00;100613.41;10358390;28;20046;-73
2023/01/21 02:35:36;;;;;;;76.22;31.02;;;;;;;-1.63;100.00;100629.19;10377088;28;20038;-73
2023/01/21 02:41:04;;;;;;;57.88;28.02;;;;;;;-1.60;100.00;100619.78;10377064;28;20048;-73
2023/01/21 02:46:31;;;;;;;51.20;26.42;;;;;;;-1.69;100.00;100629.00;10374843;28;20049;-73
2023/01/21 02:51:33;;;;;;;49.95;26.40;;;;;;;-1.69;100.00;100632.44;10376684;28;20054;-73
2023/01/21 02:56:35;;;;;;;43.28;21.75;;;;;;;-1.73;100.00;100630.59;10376193;28;20040;-73
2023/01/21 03:02:07;;;;;;;52.45;22.05;;;;;;;-1.85;100.00;100636.31;10377045;28;20072;-73
2023/01/21 03:07:26;;;;;;;51.05;24.58;;;;;;;-1.76;100.00;100645.16;10375680;28;20376;-73
2023/01/21 03:12:28;;;;;;;61.78;25.40;;;;;;;-1.81;100.00;100640.72;10374971;28;20042;-74
2023/01/21 03:17:40;;;;;;;48.13;22.60;;;;;;;-1.93;100.00;100639.50;10376134;28;20042;-74
2023/01/21 03:22:43;;;;;;;46.60;21.40;;;;;;;-1.94;100.00;100638.63;10383599;28;20118;-73
2023/01/21 03:27:46;;;;;;;41.15;21.85;;;;;;;-1.85;100.00;100651.78;10384850;28;20045;-74
2023/01/21 03:32:50;;;;;;;33.67;18.52;;;;;;;-1.78;100.00;100648.53;10381300;28;20073;-73
2023/01/21 03:38:19;;;;;;;21.05;17.33;;;;;;;-1.87;100.00;100657.72;10383369;28;20038;-73
2023/01/21 03:43:21;;;;;;;25.25;17.25;;;;;;;-1.94;100.00;100660.97;10379032;28;20057;-74
2023/01/21 03:48:56;;;;;;;30.45;17.98;;;;;;;-1.84;100.00;100657.81;10383070;28;20041;-74
2023/01/21 03:53:58;;;;;;;28.95;19.27;;;;;;;-2.00;100.00;100665.91;10380373;28;20053;-74
2023/01/21 03:59:00;;;;;;;30.70;19.98;;;;;;;-1.94;100.00;100660.97;10383366;28;20046;-73
2023/01/21 04:04:01;;;;;;;26.83;18.10;;;;;;;-1.78;100.00;100664.00;10382445;28;20049;-74
2023/01/21 04:09:04;;;;;;;31.77;20.08;;;;;;;-1.85;100.00;100658.63;10382938;28;20038;-74
2023/01/21 04:14:06;;;;;;;41.47;21.52;;;;;;;-1.82;100.00;100663.84;10380505;28;20061;-74
2023/01/21 04:19:07;;;;;;;29.73;19.70;;;;;;;-1.97;100.00;100668.59;10381577;28;20033;-73
2023/01/21 04:24:09;;;;;;;31.77;22.13;;;;;;;-1.90;100.00;100671.41;10381328;28;20078;-74
2023/01/21 04:29:11;;;;;;;29.88;20.77;;;;;;;-1.95;100.00;100683.25;10381366;28;20469;-74
2023/01/21 04:34:15;;;;;;;46.47;24.48;;;;;;;-1.89;100.00;100674.84;10379350;28;20454;-74
2023/01/21 04:39:17;;;;;;;31.80;23.13;;;;;;;-1.93;100.00;100671.31;10394724;23;20045;-75
2023/01/21 04:44:18;;;;;;;36.45;23.90;;;;;;;-1.94;100.00;100672.13;10461028;28;20049;-75
2023/01/21 04:49:20;;;;;;;38.72;23.38;;;;;;;-2.03;100.00;100682.19;10444380;28;20061;-75
2023/01/21 04:54:22;;;;;;;26.13;19.25;;;;;;;-1.98;100.00;100682.31;10461267;28;20453;-75
2023/01/21 04:59:24;;;;;;;19.17;17.13;;;;;;;-1.97;100.00;100682.34;10461483;28;20056;-76
2023/01/21 05:04:25;;;;;;;28.55;19.50;;;;;;;-1.96;100.00;100688.38;10461148;28;20099;-76
2023/01/21 05:09:27;;;;;;;19.25;16.60;;;;;;;-1.99;100.00;100691.75;10462012;28;20413;-75
2023/01/21 05:14:29;;;;;;;20.38;16.33;;;;;;;-1.85;100.00;100693.00;10460026;28;20053;-76
2023/01/21 05:19:31;;;;;;;26.95;18.60;;;;;;;-1.84;100.00;100689.59;10461731;28;20041;-76
2023/01/21 05:24:32;;;;;;;31.27;21.48;;;;;;;-1.86;100.00;100710.97;10461291;28;20067;-75
2023/01/21 05:29:34;;;;;;;48.22;26.33;;;;;;;-2.06;100.00;100703.56;10459374;28;20057;-75
2023/01/21 05:34:36;;;;;;;42.10;25.75;;;;;;;-2.04;100.00;100712.22;10460914;28;20052;-75
2023/01/21 05:39:37;;;;;;;48.65;23.48;;;;;;;-2.07;100.00;100701.81;10458621;28;20083;-75
2023/01/21 05:44:39;;;;;;;41.47;23.70;;;;;;;-1.97;100.00;100707.25;10459608;28;20049;-74
2023/01/21 05:49:41;;;;;;;43.90;22.00;;;;;;;-1.85;100.00;100703.31;10459873;28;20504;-75
2023/01/21 05:54:43;;;;;;;42.63;22.05;;;;;;;-1.97;100.00;100704.66;10459617;28;20044;-76
2023/01/21 06:00:03;;;;;;;46.33;22.50;;;;;;;-2.23;100.00;100707.31;10460124;28;20037;-76
2023/01/21 06:05:05;;;;;;;51.40;23.90;;;;;;;-2.12;100.00;100713.69;10459273;28;20072;-76
2023/01/21 06:10:07;;;;;;;56.95;23.83;;;;;;;-2.09;100.00;100711.19;10457896;28;20056;-76
2023/01/21 06:15:10;;;;;;;50.33;23.70;;;;;;;-2.08;100.00;100715.53;10458585;28;20057;-75
2023/01/21 06:20:12;;;;;;;60.35;24.58;;;;;;;-2.09;100.00;100718.03;10459997;28;20106;-76
2023/01/21 06:25:13;;;;;;;64.97;23.80;;;;;;;-2.16;100.00;100717.00;10459074;28;20059;-76
2023/01/21 06:30:15;;;;;;;66.45;26.02;;;;;;;-2.15;100.00;100716.16;10458328;28;20103;-75
2023/01/21 06:35:18;;;;;;;73.22;26.23;;;;;;;-2.21;100.00;100726.28;10457011;28;20111;-75
2023/01/21 06:40:19;;;;;;;75.80;27.13;;;;;;;-2.20;100.00;100714.28;10458537;28;20039;-75
2023/01/21 06:45:21;;;;;;;81.93;29.42;;;;;;;-2.22;100.00;100715.91;10458974;28;20040;-76
2023/01/21 06:50:23;;;;;;;69.55;27.63;;;;;;;-2.10;100.00;100726.59;10458890;28;20041;-76
2023/01/21 06:55:25;;;;;;;50.38;23.20;;;;;;;-2.01;100.00;100731.16;10439968;28;20052;-75
2023/01/21 07:00:26;;;;;;;41.78;21.02;;;;;;;-2.00;100.00;100723.47;10457989;28;20521;-75
2023/01/21 07:05:28;;;;;;;37.20;19.75;;;;;;;-1.91;100.00;100726.31;10457802;28;20041;-76
2023/01/21 07:10:30;;;;;;;44.45;20.65;;;;;;;-1.88;100.00;100733.28;10457884;28;20049;-76
2023/01/21 07:15:31;;;;;;;38.00;20.60;;;;;;;-2.11;100.00;100725.72;10458386;28;20047;-75
2023/01/21 07:20:33;;;;;;;28.73;18.83;;;;;;;-2.05;100.00;100727.59;10458060;28;20053;-77
2023/01/21 07:25:36;;;;;;;28.95;20.33;;;;;;;-2.06;100.00;100728.44;10457889;28;20049;-75
2023/01/21 07:30:38;;;;;;;27.40;18.23;;;;;;;-1.96;100.00;100734.75;10456514;28;20037;-75
2023/01/21 07:35:39;;;;;;;22.65;17.77;;;;;;;-1.88;100.00;100739.28;10456038;28;20072;-76
2023/01/21 07:40:41;;;;;;;31.63;19.27;;;;;;;-1.90;100.00;100740.09;10456441;28;20047;-75
2023/01/21 07:45:43;;;;;;;24.90;17.58;;;;;;;-1.89;100.00;100747.88;10458040;28;20045;-77
2023/01/21 07:50:44;;;;;;;27.40;19.52;;;;;;;-1.88;100.00;100747.03;10456690;28;20049;-77
2023/01/21 07:55:46;;;;;;;22.90;17.25;;;;;;;-1.89;100.00;100745.28;10458373;28;20045;-76
2023/01/21 08:00:48;;;;;;;25.23;18.30;;;;;;;-1.88;100.00;100739.28;10458100;28;20402;-76
2023/01/21 08:05:51;;;;;;;34.85;19.48;;;;;;;-1.87;100.00;100748.75;10461570;28;20506;-75
2023/01/21 08:10:53;;;;;;;26.85;20.42;;;;;;;-1.75;100.00;100750.84;10466251;28;20048;-75
2023/01/21 08:15:56;;;;;;;29.75;18.58;;;;;;;-1.70;100.00;100749.28;10465050;28;20068;-76
2023/01/21 08:20:58;;;;;;;32.17;21.25;;;;;;;-1.75;100.00;100747.41;10465391;28;20056;-76
2023/01/21 08:26:02;;;;;;;28.63;21.10;;;;;;;-1.75;100.00;100747.41;10466583;28;20033;-76
2023/01/21 08:31:07;;;;;;;25.45;19.42;;;;;;;-1.59;100.00;100758.19;10464888;28;20045;-77
2023/01/21 08:36:09;;;;;;;37.75;20.88;;;;;;;-1.63;100.00;100753.78;10464074;28;20136;-76
2023/01/21 08:41:10;;;;;;;35.35;21.13;;;;;;;-1.87;100.00;100751.34;10465153;28;20048;-76
2023/01/21 08:46:13;;;;;;;34.40;21.50;;;;;;;-1.82;100.00;100739.47;10463772;28;20061;-76
2023/01/21 08:51:14;;;;;;;35.30;22.05;;;;;;;-1.66;100.00;100737.34;10463570;28;20056;-77
2023/01/21 08:56:17;;;;;;;31.95;20.65;;;;;;;-1.65;100.00;100736.50;10463777;28;20068;-77
2023/01/21 09:01:19;;;;;;;36.78;21.42;;;;;;;-1.51;100.00;100745.50;10464062;28;20045;-76
2023/01/21 09:06:21;;;;;;;36.40;20.88;;;;;;;-1.36;100.00;100745.94;10462954;28;20043;-78
2023/01/21 09:11:24;;;;;;;41.85;21.85;;;;;;;-1.54;100.00;100759.19;10461075;28;20041;-77
2023/01/21 09:16:25;;;;;;;32.20;21.08;;;;;;;-1.46;100.00;100762.00;10462955;28;20049;-77
2023/01/21 09:21:28;;;;;;;40.30;22.02;;;;;;;-1.47;100.00;100760.22;10463577;28;20049;-76
2023/01/21 09:26:30;;;;;;;31.05;22.13;;;;;;;-1.44;100.00;100750.03;10463802;28;20045;-77
2023/01/21 09:31:31;;;;;;;28.17;20.83;;;;;;;-1.35;100.00;100757.13;10464138;28;20056;-77
2023/01/21 09:36:33;;;;;;;29.88;20.80;;;;;;;-1.43;100.00;100766.34;10462183;28;20053;-78
2023/01/21 09:41:44;;;;;;;31.15;21.58;;;;;;;-1.44;100.00;100762.03;10437806;28;20041;-77
2023/01/21 09:47:04;;;;;;;35.08;21.90;;;;;;;-1.23;100.00;100760.06;10422841;28;20068;-76
2023/01/21 09:52:43;;;;;;;32.13;21.70;;;;;;;-1.20;100.00;100754.09;10421963;28;20064;-77
2023/01/21 09:58:03;;;;;;;31.33;21.08;;;;;;;-1.22;100.00;100746.31;10329119;28;20049;-77
2023/01/21 10:03:31;;;;;;;31.55;20.00;;;;;;;-1.13;100.00;100748.28;10422326;28;20151;-77
2023/01/21 10:09:00;;;;;;;31.02;20.25;;;;;;;-1.21;100.00;100747.19;10420314;28;20046;-78
2023/01/21 10:14:43;;;;;;;30.83;20.67;;;;;;;-1.15;100.00;100747.34;10422936;28;20041;-77
2023/01/21 10:19:52;;;;;;;35.90;20.27;;;;;;;-1.05;100.00;100747.66;10396757;28;20058;-77
2023/01/21 10:25:05;;;;;;;25.52;19.00;;;;;;;-1.03;100.00;100745.97;10423007;28;20375;-77
2023/01/21 10:30:19;;;;;;;28.17;20.00;;;;;;;-0.97;100.00;100739.22;10422103;28;20457;-77
2023/01/21 10:35:31;;;;;;;36.03;20.60;;;;;;;-0.95;100.00;100735.84;10420666;28;20103;-77
2023/01/21 10:40:54;;;;;;;20.90;18.70;;;;;;;-0.98;100.00;100719.41;10419498;28;20053;-74
2023/01/21 10:46:16;;;;;;;33.00;21.17;;;;;;;-0.87;100.00;100725.75;10417906;28;20099;-75
2023/01/21 10:51:40;;;;;;;26.63;18.63;;;;;;;-0.88;100.00;100718.84;10418766;28;20388;-73
2023/01/21 10:56:55;;;;;;;26.85;20.60;;;;;;;-0.93;100.00;100712.66;10417164;28;20037;-76
2023/01/21 11:02:21;;;;;;;27.80;19.40;;;;;;;-0.81;100.00;100706.09;10417591;28;20059;-74
2023/01/21 11:07:24;;;;;;;26.95;19.70;;;;;;;-0.87;100.00;100699.94;10421247;28;20041;-74
2023/01/21 11:12:26;;;;;;;18.80;16.98;;;;;;;-0.83;100.00;100699.19;10417780;28;20072;-74
2023/01/21 11:17:33;;;;;;;19.70;17.65;;;;;;;-0.70;99.75;100693.47;10417888;28;20502;-75
2023/01/21 11:22:42;;;;;;;19.20;16.90;;;;;;;-0.69;99.18;100690.06;10418320;28;20415;-76
2023/01/21 11:27:44;;;;;;;25.88;18.00;;;;;;;-0.74;99.96;100694.25;10418050;28;20296;-74
2023/01/21 11:32:45;;;;;;;18.00;16.10;;;;;;;-0.65;99.72;100684.13;10416546;28;20144;-75
2023/01/21 11:37:47;;;;;;;22.23;18.45;;;;;;;-0.66;99.51;100674.66;10418199;28;20152;-73
2023/01/21 11:42:54;;;;;;;19.48;17.40;;;;;;;-0.77;100.00;100664.03;10425671;28;20158;-75
2023/01/21 11:47:58;;;;;;;20.80;18.00;;;;;;;-0.69;100.00;100646.16;10425060;28;20410;-75
2023/01/21 11:53:10;;;;;;;23.10;18.65;;;;;;;-0.68;100.00;100645.31;10407190;28;20050;-74
2023/01/21 11:58:21;;;;;;;21.60;19.40;;;;;;;-0.69;100.00;100643.59;10423872;28;20079;-74
2023/01/21 12:03:32;;;;;;;22.42;18.92;;;;;;;-0.62;100.00;100632.56;10426115;28;20051;-75
2023/01/21 12:08:37;;;;;;;19.77;17.50;;;;;;;-0.60;100.00;100643.78;10426407;28;20088;-73
2023/01/21 12:13:50;;;;;;;19.55;17.50;;;;;;;-0.64;100.00;100639.41;10427116;28;20043;-73
2023/01/21 12:18:55;;;;;;;19.48;17.58;;;;;;;-0.58;100.00;100628.31;10425410;28;20038;-73
2023/01/21 12:24:27;;;;;;;21.05;16.92;;;;;;;-0.58;100.00;100636.94;10424411;28;20053;-74
2023/01/21 12:29:31;;;;;;;19.92;17.88;;;;;;;-0.57;100.00;100636.13;10426894;28;20071;-74
2023/01/21 12:35:03;;;;;;;19.13;17.05;;;;;;;-0.45;100.00;100634.66;10423972;28;20049;-75
2023/01/21 12:40:16;;;;;;;19.38;16.63;;;;;;;-0.40;100.00;100614.94;10424413;28;20041;-74
2023/01/21 12:45:23;;;;;;;19.25;17.25;;;;;;;-0.22;100.00;100617.06;10423904;28;20072;-73
2023/01/21 12:50:34;;;;;;;18.10;16.20;;;;;;;-0.30;100.00;100602.28;10422948;28;20124;-76
2023/01/21 12:55:49;;;;;;;18.45;16.73;;;;;;;-0.31;100.00;100594.47;10449043;28;20055;-74
2023/01/21 13:00:53;;;;;;;17.88;16.10;;;;;;;-0.25;100.00;100592.03;10435706;28;20040;-74
2023/01/21 13:06:13;;;;;;;16.95;15.55;;;;;;;-0.11;100.00;100593.19;10464780;28;20057;-75
2023/01/21 13:11:37;;;;;;;15.63;14.13;;;;;;;-0.09;100.00;100578.59;10463893;28;20454;-74
2023/01/21 13:16:48;;;;;;;16.27;14.68;;;;;;;-0.03;100.00;100565.78;10448828;28;20044;-76
2023/01/21 13:22:09;;;;;;;18.95;17.08;;;;;;;-0.14;100.00;100549.19;10466200;28;20513;-75
2023/01/21 13:27:11;;;;;;;19.83;17.75;;;;;;;-0.04;100.00;100529.59;10464415;28;20043;-75
2023/01/21 13:32:25;;;;;;;20.65;18.08;;;;;;;-0.14;100.00;100518.19;10465907;28;20045;-75
2023/01/21 13:37:34;;;;;;;27.23;18.85;;;;;;;-0.01;100.00;100527.91;10466032;28;20411;-75
2023/01/21 13:42:40;;;;;;;22.40;19.60;;;;;;;0.04;100.00;100524.53;10464193;28;20045;-74
2023/01/21 13:48:06;;;;;;;24.13;19.30;;;;;;;-0.23;100.00;100533.50;10464563;28;20567;-74
2023/01/21 13:53:08;;;;;;;27.63;20.15;;;;;;;-0.39;100.00;100528.91;10462301;28;20043;-75
2023/01/21 13:58:14;;;;;;;23.98;21.45;;;;;;;-0.24;100.00;100520.56;10460642;28;20073;-74
2023/01/21 14:03:44;;;;;;;24.58;21.63;;;;;;;-0.39;100.00;100519.44;10452413;28;20387;-74
2023/01/21 14:09:02;;;;;;;28.00;21.02;;;;;;;-0.38;100.00;100507.38;10431769;28;20048;-73
2023/01/21 14:14:10;;;;;;;30.58;21.50;;;;;;;-0.53;100.00;100505.38;10451787;28;20041;-73
2023/01/21 14:19:49;;;;;;;30.63;20.92;;;;;;;-0.48;100.00;100487.41;10435868;28;20041;-74
2023/01/21 14:25:09;;;;;;;36.25;21.85;;;;;;;-0.53;100.00;100482.13;10418204;28;20072;-74
2023/01/21 14:30:19;;;;;;;33.95;21.50;;;;;;;-0.51;100.00;100488.19;10418791;28;20037;-73
2023/01/21 14:35:24;;;;;;;31.98;21.02;;;;;;;-0.50;100.00;100489.94;10418743;28;20041;-74
2023/01/21 14:40:30;;;;;;;34.38;21.65;;;;;;;-0.59;100.00;100480.28;10422493;28;20042;-74
2023/01/21 14:45:52;;;;;;;29.60;20.25;;;;;;;-0.63;100.00;100483.63;10419990;28;20051;-74
2023/01/21 14:51:10;;;;;;;33.28;22.13;;;;;;;-0.62;100.00;100489.66;10419541;28;20041;-73
2023/01/21 14:56:17;;;;;;;;;;;;;;;-0.60;100.00;100482.84;10418602;28;20107;-72
2023/01/21 15:01:30;;;;;;;34.97;22.10;;;;;;;-0.66;100.00;100478.44;10418973;28;20296;-73
2023/01/21 15:06:37;;;;;;;31.73;21.70;;;;;;;-0.60;100.00;100477.69;10419036;28;20061;-74
2023/01/21 15:11:42;;;;;;;29.73;20.52;;;;;;;-0.65;100.00;100479.28;10416773;28;20073;-73
2023/01/21 15:16:45;;;;;;;28.92;21.48;;;;;;;-0.63;100.00;100470.72;10416495;28;20134;-73
2023/01/21 15:22:17;;;;;;;27.70;20.23;;;;;;;-0.62;100.00;100475.06;10417188;28;20045;-73
2023/01/21 15:27:20;;;;;;;28.83;20.83;;;;;;;-0.67;100.00;100481.81;10417347;28;20440;-73
2023/01/21 15:32:28;;;;;;;24.77;19.90;;;;;;;-0.61;100.00;100473.38;10417392;28;20045;-74
2023/01/21 15:37:31;;;;;;;34.88;22.25;;;;;;;-0.67;100.00;100478.38;10418003;28;20048;-75
2023/01/21 15:43:01;;;;;;;31.73;21.63;;;;;;;-0.60;100.00;100467.34;10416212;28;20053;-74
2023/01/21 15:48:09;;;;;;;28.98;20.80;;;;;;;-0.66;100.00;100465.53;10398656;28;20077;-74
2023/01/21 15:53:34;;;;;;;23.63;20.48;;;;;;;-0.63;100.00;100465.56;10417450;28;20053;-74
2023/01/21 15:58:50;;;;;;;22.10;18.77;;;;;;;-0.57;100.00;100467.41;10416672;28;20480;-74
2023/01/21 16:04:01;;;;;;;22.35;18.40;;;;;;;-0.57;100.00;100467.41;10416327;28;20479;-72
2023/01/21 16:09:08;;;;;;;22.00;17.77;;;;;;;-0.55;100.00;100469.19;10415237;28;20037;-73
2023/01/21 16:14:33;;;;;;;30.77;17.35;;;;;;;-0.54;100.00;100460.56;10415711;28;20045;-73
2023/01/21 16:19:44;;;;;;;18.42;16.33;;;;;;;-0.51;100.00;100455.50;10415565;28;20048;-73
2023/01/21 16:24:50;;;;;;;17.77;16.17;;;;;;;-0.56;100.00;100457.13;10417048;28;20044;-74
2023/01/21 16:29:57;;;;;;;17.30;15.57;;;;;;;-0.55;100.00;100460.56;10422297;28;20521;-74
2023/01/21 16:34:59;;;;;;;15.75;14.25;;;;;;;-0.57;100.00;100460.53;10422111;28;20046;-74
2023/01/21 16:45:19;;;;;;;15.30;13.80;;;;;;;-0.63;100.00;100452.66;10361285;28;20521;-72
2023/01/21 16:50:24;;;;;;;15.50;14.13;;;;;;;-0.57;100.00;100452.78;10394561;28;20037;-72
2023/01/21 16:55:29;;;;;;;15.93;14.50;;;;;;;-0.60;100.00;100452.72;10405791;28;20046;-72
2023/01/21 17:00:31;;;;;;;14.98;13.63;;;;;;;-0.52;100.00;100456.34;10428799;28;20047;-72
2023/01/21 17:05:36;;;;;;;13.93;12.63;;;;;;;-0.56;100.00;100457.13;10425858;28;20402;-72
2023/01/21 17:10:49;;;;;;;12.38;11.32;;;;;;;-0.53;100.00;100461.47;10405181;28;20046;-72
2023/01/21 17:15:56;;;;;;;13.68;12.50;;;;;;;-0.51;100.00;100457.19;10405534;28;20056;-72
2023/01/21 17:21:06;;;;;;;12.52;11.43;;;;;;;-0.45;100.00;100459.88;10422216;28;20049;-71
2023/01/21 17:26:19;;;;;;;11.13;10.23;;;;;;;-0.43;100.00;100455.66;10389241;28;20349;-72
2023/01/21 17:31:26;;;;;;;8.38;7.68;;;;;;;-0.44;100.00;100463.34;10419908;28;20045;-71
2023/01/21 17:36:35;;;;;;;7.72;7.10;;;;;;;-0.33;100.00;100469.59;10405406;28;20091;-71
2023/01/21 17:41:41;;;;;;;6.97;6.38;;;;;;;-0.35;100.00;100464.41;10420754;28;20049;-71
2023/01/21 17:46:47;;;;;;;6.13;5.63;;;;;;;-0.31;100.00;100471.38;10420765;28;20049;-71
2023/01/21 17:51:51;;;;;;;5.68;5.28;;;;;;;-0.27;100.00;100480.03;10421585;28;20046;-72
2023/01/21 17:56:57;;;;;;;5.15;4.65;;;;;;;-0.27;100.00;100482.63;10419355;28;20052;-72
2023/01/21 18:02:05;;;;;;;5.40;5.00;;;;;;;-0.23;100.00;100478.38;10420043;28;20041;-72
2023/01/21 18:07:24;;;;;;;6.15;5.55;;;;;;;-0.19;100.00;100493.09;10401753;28;20136;-71
2023/01/21 18:12:25;;;;;;;5.28;4.88;;;;;;;-0.04;100.00;100496.88;10404111;28;20041;-71
2023/01/21 18:17:27;;;;;;;4.78;4.38;;;;;;;-0.06;100.00;100497.66;10418892;28;20050;-72
2023/01/21 18:22:30;;;;;;;6.40;4.78;;;;;;;-0.20;100.00;100493.97;10441695;28;20072;-71
2023/01/21 18:27:32;;;;;;;4.72;4.43;;;;;;;-0.23;100.00;100499.94;10425931;28;20080;-72
2023/01/21 18:32:34;;;;;;;4.43;4.13;;;;;;;-0.08;100.00;100504.53;10461778;28;20051;-72
2023/01/21 18:37:36;;;;;;;4.63;4.32;;;;;;;-0.18;100.00;100500.00;10458248;28;20064;-72
2023/01/21 18:42:38;;;;;;;4.00;3.70;;;;;;;-0.27;100.00;100504.19;10460767;28;20040;-72
2023/01/21 18:47:39;;;;;;;5.32;4.03;;;;;;;-0.31;100.00;100498.91;10461262;28;20048;-73
2023/01/21 18:52:41;;;;;;;4.18;3.88;;;;;;;-0.33;100.00;100498.00;10445777;28;20072;-72
2023/01/21 18:57:46;;;;;;;5.10;4.70;;;;;;;-0.23;100.00;100497.34;10460121;28;20127;-72
2023/01/21 19:02:52;;;;;;;5.20;4.80;;;;;;;-0.28;100.00;100502.41;10459874;28;20067;-72
2023/01/21 19:07:54;;;;;;;5.47;4.97;;;;;;;-0.14;100.00;100505.25;10460670;28;20040;-73
2023/01/21 19:12:55;;;;;;;3.40;3.10;;;;;;;-0.13;100.00;100503.59;10459389;28;20055;-72
2023/01/21 19:17:57;;;;;;;4.18;3.28;;;;;;;-0.06;100.00;100497.66;10460364;28;20041;-72
2023/01/21 19:22:59;;;;;;;3.53;3.22;;;;;;;-0.24;100.00;100499.91;10458697;28;20124;-72
2023/01/21 19:28:03;;;;;;;4.15;3.85;;;;;;;-0.22;100.00;100501.69;10460434;28;20044;-72
2023/01/21 19:33:05;;;;;;;4.68;4.28;;;;;;;-0.29;100.00;100505.00;10457598;28;20047;-71
2023/01/21 19:38:18;;;;;;;5.93;4.50;;;;;;;-0.16;100.00;100506.09;10457732;28;20037;-72
2023/01/21 19:43:21;;;;;;;5.03;4.60;;;;;;;-0.29;100.00;100513.59;10457663;28;20048;-72
2023/01/21 19:48:23;;;;;;;4.47;4.10;;;;;;;-0.22;100.00;100513.72;10459839;28;20041;-72
2023/01/21 19:53:24;;;;;;;4.47;4.07;;;;;;;-0.08;100.00;100532.97;10458500;28;20402;-72
2023/01/21 19:58:29;;;;;;;4.47;4.07;;;;;;;-0.14;100.00;100538.00;10457866;28;20056;-71
2023/01/21 20:03:31;;;;;;;4.05;3.70;;;;;;;0.00;100.00;100549.50;10447844;28;20052;-71
2023/01/21 20:08:32;;;;;;;4.18;3.88;;;;;;;-0.07;100.00;100545.03;10466776;28;20375;-72
2023/01/21 20:13:35;;;;;;;4.00;3.70;;;;;;;-0.15;100.00;100546.59;10450211;28;20056;-72
2023/01/21 20:18:37;;;;;;;4.47;4.18;;;;;;;-0.07;100.00;100564.00;10447925;28;20041;-71
2023/01/21 20:23:39;;;;;;;4.68;4.32;;;;;;;-0.31;100.00;100558.31;10465540;28;20037;-72
2023/01/21 20:28:45;;;;;;;5.25;4.85;;;;;;;-0.28;100.00;100568.72;10464335;28;20045;-72
2023/01/21 20:33:47;;;;;;;5.07;4.67;;;;;;;-0.08;100.00;100571.72;10447358;28;20063;-72
2023/01/21 20:38:49;;;;;;;5.22;4.72;;;;;;;-0.30;100.00;100573.00;10445970;28;20165;-72
2023/01/21 20:43:51;;;;;;;5.65;5.18;;;;;;;-0.24;100.00;100583.44;10445579;28;20045;-72
2023/01/21 20:48:53;;;;;;;5.65;5.22;;;;;;;-0.23;100.00;100584.31;10463777;28;20107;-71
2023/01/21 20:53:54;;;;;;;6.00;5.47;;;;;;;-0.25;100.00;100589.47;10448318;28;20397;-71
2023/01/21 20:58:57;;;;;;;7.00;6.40;;;;;;;-0.08;100.00;100588.09;10463778;28;20041;-71
2023/01/21 21:03:58;;;;;;;5.65;5.22;;;;;;;-0.15;100.00;100604.31;10463112;28;20065;-72
2023/01/21 21:09:01;;;;;;;6.22;5.72;;;;;;;-0.22;100.00;100602.44;10463042;28;20049;-72
2023/01/21 21:14:03;;;;;;;6.32;5.88;;;;;;;-0.35;100.00;100613.38;10460900;28;20048;-72
2023/01/21 21:19:26;;;;;;;7.10;6.57;;;;;;;-0.23;100.00;100612.72;10435678;28;20493;-71
2023/01/21 21:24:28;;;;;;;6.78;6.28;;;;;;;-0.27;100.00;100619.53;10461640;28;20041;-71
2023/01/21 21:29:30;;;;;;;8.32;7.57;;;;;;;-0.36;100.00;100620.22;10461347;28;20041;-71
2023/01/21 21:34:33;;;;;;;6.75;6.25;;;;;;;-0.37;100.00;100620.19;10461809;28;20079;-71
2023/01/21 21:39:34;;;;;;;7.32;6.70;;;;;;;-0.28;100.00;100623.84;10463390;28;20041;-71
2023/01/21 21:44:37;;;;;;;5.93;5.45;;;;;;;-0.28;100.00;100633.31;10460670;28;20045;-71
2023/01/21 21:49:39;;;;;;;7.60;7.00;;;;;;;-0.41;100.00;100629.56;10460317;28;20494;-71
2023/01/21 21:54:41;;;;;;;7.10;6.60;;;;;;;-0.34;100.00;100626.31;10461843;28;20051;-71
2023/01/21 21:59:43;;;;;;;7.05;6.55;;;;;;;-0.29;100.00;100634.16;10463198;28;20049;-71
2023/01/21 22:04:45;;;;;;;6.93;6.22;;;;;;;-0.07;100.00;100633.75;10461110;28;20053;-71
2023/01/21 22:09:46;;;;;;;7.47;6.55;;;;;;;-0.22;100.00;100637.72;10441977;28;20052;-71
2023/01/21 22:14:48;;;;;;;7.47;6.97;;;;;;;-0.25;100.00;100635.97;10461561;28;20051;-71
2023/01/21 22:19:50;;;;;;;7.25;6.75;;;;;;;-0.29;100.00;100645.34;10462120;28;20501;-72
2023/01/21 22:24:51;;;;;;;7.18;6.68;;;;;;;-0.24;100.00;100647.16;10460903;28;20490;-72
2023/01/21 22:29:55;;;;;;;7.22;6.72;;;;;;;-0.28;100.00;100644.50;10460688;28;20037;-72
2023/01/21 22:34:57;;;;;;;8.05;7.40;;;;;;;-0.43;100.00;100646.78;10459001;28;20049;-72
2023/01/21 22:39:58;;;;;;;8.18;7.47;;;;;;;-0.39;100.00;100652.88;10460977;28;20041;-72
2023/01/21 22:45:00;;;;;;;7.45;6.75;;;;;;;-0.29;100.00;100663.44;10506714;23;20558;-74
2023/01/21 22:50:02;;;;;;;7.50;6.90;;;;;;;-0.23;100.00;100665.28;10499620;28;20555;-73
2023/01/21 22:55:04;;;;;;;6.70;6.20;;;;;;;-0.26;100.00;100666.09;10481446;28;20569;-74
2023/01/21 23:00:10;;;;;;;7.30;6.80;;;;;;;-0.31;100.00;100662.53;10481626;28;20044;-74